YPAD Airport Information

Runway Information
Runway 05 Length 10171 ft width 148 ft
Elevation 14 ft Threshold 493 ft Heading 50
Runway 23 Length 10171 ft Width 148 ft
Elevation 20 ft Threshold ft Heading 230
Runway 12 Length 5420 ft width 148 ft
Elevation 14 ft Threshold ft Heading 124
Runway 30 Length 5420 ft Width 148 ft
Elevation 14 ft Threshold ft Heading 304
Airport Frequencies
Type A/D Name APP/DEP Frequency 118.2 MHZ
Type ATIS Name ATIS Frequency 116.4 MHZ
Type CLD Name CLNC DEL Frequency 126.1 MHZ
Type GND Name GND Frequency 121.7 MHZ
Type TWR Name TWR Frequency 120.5 MHZ
Airport Navaids
Type VOR-DME Name Adelaide Frequency 116400 KHZ
Type NDB Name Adelaide (DECOMMISSIONED) Frequency 362 KHZ
Type NDB Name Modbury (DECOMISSIONED) Frequency 377 KHZ
Airport Weather Information & NOTAM
ADDS - METARS form results

(1726 UTC 30 June 2022)
Data provider http://aviationweather.gov/metar/data/
 
METAR text: YPAD 301700Z 17006KT 9999 BKN019 12/09 Q1030
Conditions at: YPAD (ADELAIDE INTL AR, AU) observed 1700 UTC 30 June 2022
Temperature: 12.0°C (54°F)
Dewpoint: 9.0°C (48°F) [RH = 82%]
Pressure (altimeter): 30.41 inches Hg (1030.0 mb)
Winds: from the S (170 degrees) at 7 MPH (6 knots; 3.1 m/s)
Visibility: 6 or more miles (10+ km)
Ceiling: 1900 feet AGL
Clouds: broken clouds at 1900 feet AGL
Weather: no significant weather observed at this time

METAR text: YPAD 301630Z 18004KT 130V200 9999 BKN021 11/09 Q1030
Conditions at: YPAD (ADELAIDE INTL AR, AU) observed 1630 UTC 30 June 2022
Temperature: 11.0°C (52°F)
Dewpoint: 9.0°C (48°F) [RH = 87%]
Pressure (altimeter): 30.41 inches Hg (1030.0 mb)
Winds: from the S (180 degrees) at 5 MPH (4 knots; 2.1 m/s)
Visibility: 6 or more miles (10+ km)
Ceiling: 2100 feet AGL
Clouds: broken clouds at 2100 feet AGL
Weather: no significant weather observed at this time

Forecast for: AMD
Text: TAF AMD YPAD 301634Z 3016/0118 16008KT 9999 FEW010 BKN020
Forecast period: 1600 to 2200 UTC 30 June 2022
Forecast type: FROM: standard forecast or significant change
Winds: from the SSE (160 degrees) at 9 MPH (8 knots; 4.1 m/s)
Visibility: 6 or more miles (10+ km)
Ceiling: 2000 feet AGL
Clouds: few clouds at 1000 feet AGL
broken clouds at 2000 feet AGL
Weather: no significant weather forecast for this period
Text: FM302200 14008KT 9999 BKN035
Forecast period: 2200 UTC 30 June 2022 to 1800 UTC 01 July 2022
Forecast type: FROM: standard forecast or significant change
Winds: from the SE (140 degrees) at 9 MPH (8 knots; 4.1 m/s)
Visibility: 6 or more miles (10+ km)
Ceiling: 3500 feet AGL
Clouds: broken clouds at 3500 feet AGL
Weather: no significant weather forecast for this period